Terminal Aerodrome Forecast
Issued by NWS

Home | Current Version | Previous Version | Text Only | Print | Product List | Glossary On
Versions: 1 2 3 4 5 6 7 8 9 10 11 12 13 14 15 16
516
FTUS46 KHNX 052009 AAA
TAFMCE
TAF AMD
KMCE 052009Z 0520/0618 VRB02KT 4SM HZ BKN090
      TEMPO 0520/0522 2SM BR OVC004
     FM060000 32005KT 6SM HZ SCT250
     FM060600 VRB02KT 3SM HZ BR BKN250=

USA.gov is the U.S. government's official web portal to all federal, state and local government web resources and services.